Pilot No 5 — WDC3840 — position and weather

sailwx.info

Track history (hours):
 
Tides and Currents Weather Stations Pressure Air Temp Water Temp Dewpoint Dewpoint Depression Visibility Wind Speed Wind Dir Waves Ship Positions

Pilot No 5

More information available from US FCC via Universal Licensing System and Coast Guard Vessel Documentation Center.

Last reported at 2014-Sep-21 02:33 UTC. Time now 2014-Sep-21 10:06 UTC.
Position N 26°06' W 080°07'.

Length 6 m.

Type: Pilot. MMSI: 367015090.

Date/timePositionNaut miles runAvg speedWind from/ knotsBaromVisibWave heightAir tempDewpointWater temp
2014-Sep-21 02:33N 26°06' W 080°07'0 0.5
2014-Sep-21 01:33N 26°06' W 080°07'0 0.2
2014-Sep-21 00:11N 26°06' W 080°07'2 2.6
2014-Sep-20 23:33N 26°06' W 080°05'2 2.3
2014-Sep-20 22:33N 26°06' W 080°03'4 4.1
2014-Sep-20 21:33N 26°06' W 080°07'1 0.7
2014-Sep-20 20:33N 26°06' W 080°07'0 0.4
2014-Sep-20 19:33N 26°06' W 080°07'4 0.2
2014-Sep-20 02:33N 26°06' W 080°03'3 1.3
2014-Sep-20 00:33N 26°06' W 080°06'3 2.8
2014-Sep-19 23:33N 26°04' W 080°08'3 2.6
2014-Sep-19 22:33N 26°06' W 080°06'1 1.0
2014-Sep-19 21:33N 26°05' W 080°07'0 0.4
2014-Sep-19 20:33N 26°05' W 080°07'2 1.7
2014-Sep-19 19:33N 26°06' W 080°05'0 0.0
2014-Sep-19 15:33N 26°06' W 080°05'2 0.9
2014-Sep-19 13:33N 26°05' W 080°07'0 0.1
2014-Sep-19 12:33N 26°05' W 080°07'1 0.9
2014-Sep-19 11:31N 26°06' W 080°07'3 3.3
2014-Sep-19 10:34N 26°06' W 080°04'2 2.2
2014-Sep-19 09:34N 26°06' W 080°06'1 0.7
2014-Sep-19 08:34N 26°05' W 080°07'2 2.2
2014-Sep-19 07:33N 26°06' W 080°04'2 1.7
2014-Sep-19 06:33N 26°05' W 080°03'3 0.9
2014-Sep-19 03:34N 26°06' W 080°06'1 1.3
2014-Sep-19 02:33N 26°05' W 080°07'1 0.6
2014-Sep-19 01:03N 26°06' W 080°07'2 4.8
2014-Sep-19 00:33N 26°05' W 080°05'1 1.0
2014-Sep-18 23:33N 26°04' W 080°04'3 2.5
2014-Sep-18 22:33N 26°06' W 080°07'1 0.1
2014-Sep-18 14:07N 26°06' W 080°07'0 0.5
2014-Sep-18 13:33N 26°06' W 080°07'1 0.6
2014-Sep-18 12:34N 26°05' W 080°07'1 0.8
2014-Sep-18 11:33N 26°05' W 080°07'2 1.5
2014-Sep-18 10:34N 26°06' W 080°07'1 0.7
2014-Sep-18 09:33N 26°05' W 080°07'1 0.3
2014-Sep-18 05:33N 26°06' W 080°06'1 0.9
2014-Sep-18 04:34N 26°05' W 080°07'1 0.8
2014-Sep-18 03:26N 26°06' W 080°07'1 1.0
2014-Sep-18 02:34N 26°05' W 080°07'2 1.7
2014-Sep-18 01:33N 26°06' W 080°05'2 1.8
2014-Sep-18 00:33N 26°04' W 080°07'1 1.5
2014-Sep-17 23:33N 26°06' W 080°06'1 0.6
2014-Sep-17 22:34N 26°06' W 080°07'2 1.8
2014-Sep-17 21:34N 26°06' W 080°05'2 2.2
2014-Sep-17 20:34N 26°05' W 080°07'1 0.8
2014-Sep-17 19:22N 26°06' W 080°07'1 1.3
2014-Sep-17 18:33N 26°06' W 080°06'1 1.2
2014-Sep-17 17:33N 26°05' W 080°05'1 1.0
2014-Sep-17 16:33N 26°06' W 080°05'2 2.3
2014-Sep-17 15:33N 26°05' W 080°07'1 0.6
2014-Sep-17 14:33N 26°06' W 080°07'0 0.4
2014-Sep-17 13:33N 26°05' W 080°07'3 2.7
2014-Sep-17 12:34N 26°05' W 080°04'3 2.9
2014-Sep-17 11:34N 26°05' W 080°07'1 0.1
2014-Sep-16 23:17N 26°06' W 080°07'3 4.1
2014-Sep-16 22:33N 26°06' W 080°04'2 1.9
2014-Sep-16 21:33N 26°05' W 080°03'0 0.5
2014-Sep-16 20:33N 26°05' W 080°03'4 2.0
2014-Sep-16 18:34N 26°06' W 080°07'1 0.6
2014-Sep-16 17:34N 26°06' W 080°06'1 0.2
2014-Sep-16 13:33N 26°06' W 080°06'1 1.2
2014-Sep-16 12:33N 26°05' W 080°07'1 0.3
2014-Sep-16 09:29N 26°06' W 080°07'1 1.1
2014-Sep-16 08:33N 26°05' W 080°07'1 0.2
2014-Sep-16 04:33N 26°06' W 080°07'0 0.2
2014-Sep-16 03:08N 26°06' W 080°07'1 0.9
2014-Sep-16 02:33N 26°06' W 080°07'1 0.2
2014-Sep-16 00:03N 26°06' W 080°07'0 0.0
2014-Sep-15 23:33N 26°06' W 080°07'2 2.0
2014-Sep-15 22:34N 26°04' W 080°07'1 1.3
2014-Sep-15 21:34N 26°06' W 080°07'0 0.1
2014-Sep-15 20:34N 26°05' W 080°07'1 0.6
2014-Sep-15 19:17N 26°06' W 080°07'1 1.0
2014-Sep-15 18:33N 26°05' W 080°07'1 0.2
2014-Sep-15 14:31N 26°06' W 080°07'1 0.9
2014-Sep-15 13:33N 26°05' W 080°07'3 3.3
2014-Sep-15 12:34N 26°07' W 080°04'3 3.3
2014-Sep-15 11:33N 26°06' W 080°07'1 0.7
2014-Sep-15 10:33N 26°06' W 080°07'1 1.0
2014-Sep-15 09:33N 26°05' W 080°07'1 0.1
2014-Sep-15 04:33N 26°06' W 080°06'0 0.2
2014-Sep-15 03:33N 26°06' W 080°07'1 0.2
2014-Sep-14 23:33N 26°06' W 080°07'0 0.0
2014-Sep-14 22:33N 26°06' W 080°07'2 1.6
2014-Sep-14 21:33N 26°06' W 080°06'1 1.4
2014-Sep-14 20:33N 26°05' W 080°07'0 0.3
2014-Sep-14 19:34N 26°05' W 080°07'1 0.5
2014-Sep-14 18:34N 26°06' W 080°07'0 0.4
2014-Sep-14 17:34N 26°06' W 080°07'1 0.6
2014-Sep-14 16:34N 26°06' W 080°07'0 0.0
2014-Sep-14 15:33N 26°06' W 080°07'0 0.1
2014-Sep-14 14:33N 26°06' W 080°07'1 0.9
2014-Sep-14 13:33N 26°05' W 080°07'4 1.2
2014-Sep-14 10:33N 26°06' W 080°03'2 2.2
2014-Sep-14 09:33N 26°06' W 080°05'1 0.9
2014-Sep-14 08:33N 26°06' W 080°06'0 0.4
2014-Sep-14 07:33N 26°06' W 080°07'0 0.4
2014-Sep-14 06:34N 26°05' W 080°07'0 0.4
2014-Sep-14 05:33N 26°05' W 080°07'0 0.1
2014-Sep-14 01:33N 26°06' W 080°07'0 0.1
2014-Sep-13 21:33N 26°05' W 080°07'2 2.3
2014-Sep-13 20:34N 26°06' W 080°04'0 0.2
2014-Sep-13 19:33N 26°06' W 080°05'1 0.6
2014-Sep-13 18:34N 26°06' W 080°05'1 0.7
2014-Sep-13 17:33N 26°06' W 080°06'0 0.2
2014-Sep-13 16:34N 26°06' W 080°06'2 1.6
2014-Sep-13 15:34N 26°04' W 080°07'1 1.5
2014-Sep-13 14:33N 26°06' W 080°07'1 0.9
2014-Sep-13 13:34N 26°06' W 080°07'0 0.0
2014-Sep-13 12:34N 26°06' W 080°07'1 0.7
2014-Sep-13 11:33N 26°06' W 080°07'1 0.5
2014-Sep-13 10:11N 26°06' W 080°07'3 4.2
2014-Sep-13 09:34N 26°06' W 080°05'1 1.2
2014-Sep-13 08:34N 26°06' W 080°06'1 1.1
2014-Sep-13 07:33N 26°05' W 080°07'0 0.3
2014-Sep-13 06:33N 26°05' W 080°07'0 0.3
2014-Sep-13 05:33N 26°05' W 080°07'1 1.1
2014-Sep-13 04:33N 26°06' W 080°07'0 0.0
2014-Sep-13 03:34N 26°06' W 080°07'0 0.0
2014-Sep-13 02:33N 26°06' W 080°07'0 0.0
2014-Sep-13 01:33N 26°06' W 080°07'1 1.5
2014-Sep-13 00:34N 26°06' W 080°06'1 1.0
2014-Sep-12 23:33N 26°05' W 080°07'0 0.1
2014-Sep-12 22:33N 26°05' W 080°07'0 0.2
2014-Sep-12 21:33N 26°05' W 080°07'2 2.0
2014-Sep-12 20:33N 26°05' W 080°05'1 0.8
2014-Sep-12 19:33N 26°06' W 080°06'1 1.2
2014-Sep-12 18:33N 26°05' W 080°07'1 0.8
2014-Sep-12 17:33N 26°06' W 080°07'0 0.0
2014-Sep-12 16:33N 26°06' W 080°07'0 0.3
2014-Sep-12 15:33N 26°06' W 080°07'5 5.2
2014-Sep-12 14:33N 26°07' W 080°02'4 4.0
2014-Sep-12 13:33N 26°06' W 080°05'2 1.5
2014-Sep-12 12:33N 26°06' W 080°07'0 0.2
2014-Sep-12 11:25N 26°06' W 080°07'3 3.0
2014-Sep-12 10:33N 26°06' W 080°05'2 2.4
2014-Sep-12 09:33N 26°06' W 080°07'0 0.2
2014-Sep-12 08:33N 26°06' W 080°07'2 1.8
2014-Sep-12 07:33N 26°06' W 080°05'2 2.0
2014-Sep-12 06:33N 26°06' W 080°07'0 0.0
2014-Sep-12 00:09N 26°06' W 080°07'1 1.5
2014-Sep-11 23:33N 26°06' W 080°07'1 0.3
2014-Sep-11 21:34N 26°06' W 080°07'1 0.6
2014-Sep-11 20:33N 26°05' W 080°07'0 0.2
2014-Sep-11 19:33N 26°06' W 080°07'1 0.6
2014-Sep-11 18:33N 26°06' W 080°07'3 2.9
2014-Sep-11 17:33N 26°06' W 080°04'3 2.9
2014-Sep-11 16:33N 26°06' W 080°07'0 0.0
2014-Sep-11 15:33N 26°06' W 080°07'1 1.1
2014-Sep-11 14:33N 26°05' W 080°07'1 0.2
2014-Sep-11 11:33N 26°06' W 080°06'3 2.9
2014-Sep-11 10:33N 26°06' W 080°03'3 3.5
2014-Sep-11 09:33N 26°05' W 080°07'1 0.8
2014-Sep-11 08:34N 26°06' W 080°06'1 0.6
2014-Sep-11 06:33N 26°06' W 080°07'1 1.1
2014-Sep-11 05:33N 26°05' W 080°07'0 0.1
2014-Sep-11 04:34N 26°05' W 080°07'  
Track history (hours):
 
Tides and Currents Weather Stations Pressure Air Temp Water Temp Dewpoint Dewpoint Depression Visibility Wind Speed Wind Dir Waves Ship Positions

Pilot No 5

More information available from US FCC via Universal Licensing System and Coast Guard Vessel Documentation Center.

Last reported at 2014-Sep-21 02:33 UTC. Time now 2014-Sep-21 10:06 UTC.
Position N 26°06' W 080°07'.

Length 6 m.

Type: Pilot. MMSI: 367015090.

Date/timePositionNaut miles runAvg speedWind from/ knotsBaromVisibWave heightAir tempDewpointWater temp
2014-Sep-21 02:33N 26°06' W 080°07'0 0.5
2014-Sep-21 01:33N 26°06' W 080°07'0 0.2
2014-Sep-21 00:11N 26°06' W 080°07'2 2.6
2014-Sep-20 23:33N 26°06' W 080°05'2 2.3
2014-Sep-20 22:33N 26°06' W 080°03'4 4.1
2014-Sep-20 21:33N 26°06' W 080°07'1 0.7
2014-Sep-20 20:33N 26°06' W 080°07'0 0.4
2014-Sep-20 19:33N 26°06' W 080°07'4 0.2
2014-Sep-20 02:33N 26°06' W 080°03'3 1.3
2014-Sep-20 00:33N 26°06' W 080°06'3 2.8
2014-Sep-19 23:33N 26°04' W 080°08'3 2.6
2014-Sep-19 22:33N 26°06' W 080°06'1 1.0
2014-Sep-19 21:33N 26°05' W 080°07'0 0.4
2014-Sep-19 20:33N 26°05' W 080°07'2 1.7
2014-Sep-19 19:33N 26°06' W 080°05'0 0.0
2014-Sep-19 15:33N 26°06' W 080°05'2 0.9
2014-Sep-19 13:33N 26°05' W 080°07'0 0.1
2014-Sep-19 12:33N 26°05' W 080°07'1 0.9
2014-Sep-19 11:31N 26°06' W 080°07'3 3.3
2014-Sep-19 10:34N 26°06' W 080°04'2 2.2
2014-Sep-19 09:34N 26°06' W 080°06'1 0.7
2014-Sep-19 08:34N 26°05' W 080°07'2 2.2
2014-Sep-19 07:33N 26°06' W 080°04'2 1.7
2014-Sep-19 06:33N 26°05' W 080°03'3 0.9
2014-Sep-19 03:34N 26°06' W 080°06'1 1.3
2014-Sep-19 02:33N 26°05' W 080°07'1 0.6
2014-Sep-19 01:03N 26°06' W 080°07'2 4.8
2014-Sep-19 00:33N 26°05' W 080°05'1 1.0
2014-Sep-18 23:33N 26°04' W 080°04'3 2.5
2014-Sep-18 22:33N 26°06' W 080°07'1 0.1
2014-Sep-18 14:07N 26°06' W 080°07'0 0.5
2014-Sep-18 13:33N 26°06' W 080°07'1 0.6
2014-Sep-18 12:34N 26°05' W 080°07'1 0.8
2014-Sep-18 11:33N 26°05' W 080°07'2 1.5
2014-Sep-18 10:34N 26°06' W 080°07'1 0.7
2014-Sep-18 09:33N 26°05' W 080°07'1 0.3
2014-Sep-18 05:33N 26°06' W 080°06'1 0.9
2014-Sep-18 04:34N 26°05' W 080°07'1 0.8
2014-Sep-18 03:26N 26°06' W 080°07'1 1.0
2014-Sep-18 02:34N 26°05' W 080°07'2 1.7
2014-Sep-18 01:33N 26°06' W 080°05'2 1.8
2014-Sep-18 00:33N 26°04' W 080°07'1 1.5
2014-Sep-17 23:33N 26°06' W 080°06'1 0.6
2014-Sep-17 22:34N 26°06' W 080°07'2 1.8
2014-Sep-17 21:34N 26°06' W 080°05'2 2.2
2014-Sep-17 20:34N 26°05' W 080°07'1 0.8
2014-Sep-17 19:22N 26°06' W 080°07'1 1.3
2014-Sep-17 18:33N 26°06' W 080°06'1 1.2
2014-Sep-17 17:33N 26°05' W 080°05'1 1.0
2014-Sep-17 16:33N 26°06' W 080°05'2 2.3
2014-Sep-17 15:33N 26°05' W 080°07'1 0.6
2014-Sep-17 14:33N 26°06' W 080°07'0 0.4
2014-Sep-17 13:33N 26°05' W 080°07'3 2.7
2014-Sep-17 12:34N 26°05' W 080°04'3 2.9
2014-Sep-17 11:34N 26°05' W 080°07'1 0.1
2014-Sep-16 23:17N 26°06' W 080°07'3 4.1
2014-Sep-16 22:33N 26°06' W 080°04'2 1.9
2014-Sep-16 21:33N 26°05' W 080°03'0 0.5
2014-Sep-16 20:33N 26°05' W 080°03'4 2.0
2014-Sep-16 18:34N 26°06' W 080°07'1 0.6
2014-Sep-16 17:34N 26°06' W 080°06'1 0.2
2014-Sep-16 13:33N 26°06' W 080°06'1 1.2
2014-Sep-16 12:33N 26°05' W 080°07'1 0.3
2014-Sep-16 09:29N 26°06' W 080°07'1 1.1
2014-Sep-16 08:33N 26°05' W 080°07'1 0.2
2014-Sep-16 04:33N 26°06' W 080°07'0 0.2
2014-Sep-16 03:08N 26°06' W 080°07'1 0.9
2014-Sep-16 02:33N 26°06' W 080°07'1 0.2
2014-Sep-16 00:03N 26°06' W 080°07'0 0.0
2014-Sep-15 23:33N 26°06' W 080°07'2 2.0
2014-Sep-15 22:34N 26°04' W 080°07'1 1.3
2014-Sep-15 21:34N 26°06' W 080°07'0 0.1
2014-Sep-15 20:34N 26°05' W 080°07'1 0.6
2014-Sep-15 19:17N 26°06' W 080°07'1 1.0
2014-Sep-15 18:33N 26°05' W 080°07'1 0.2
2014-Sep-15 14:31N 26°06' W 080°07'1 0.9
2014-Sep-15 13:33N 26°05' W 080°07'3 3.3
2014-Sep-15 12:34N 26°07' W 080°04'3 3.3
2014-Sep-15 11:33N 26°06' W 080°07'1 0.7
2014-Sep-15 10:33N 26°06' W 080°07'1 1.0
2014-Sep-15 09:33N 26°05' W 080°07'1 0.1
2014-Sep-15 04:33N 26°06' W 080°06'0 0.2
2014-Sep-15 03:33N 26°06' W 080°07'1 0.2
2014-Sep-14 23:33N 26°06' W 080°07'0 0.0
2014-Sep-14 22:33N 26°06' W 080°07'2 1.6
2014-Sep-14 21:33N 26°06' W 080°06'1 1.4
2014-Sep-14 20:33N 26°05' W 080°07'0 0.3
2014-Sep-14 19:34N 26°05' W 080°07'1 0.5
2014-Sep-14 18:34N 26°06' W 080°07'0 0.4
2014-Sep-14 17:34N 26°06' W 080°07'1 0.6
2014-Sep-14 16:34N 26°06' W 080°07'0 0.0
2014-Sep-14 15:33N 26°06' W 080°07'0 0.1
2014-Sep-14 14:33N 26°06' W 080°07'1 0.9
2014-Sep-14 13:33N 26°05' W 080°07'4 1.2
2014-Sep-14 10:33N 26°06' W 080°03'2 2.2
2014-Sep-14 09:33N 26°06' W 080°05'1 0.9
2014-Sep-14 08:33N 26°06' W 080°06'0 0.4
2014-Sep-14 07:33N 26°06' W 080°07'0 0.4
2014-Sep-14 06:34N 26°05' W 080°07'0 0.4
2014-Sep-14 05:33N 26°05' W 080°07'0 0.1
2014-Sep-14 01:33N 26°06' W 080°07'0 0.1
2014-Sep-13 21:33N 26°05' W 080°07'2 2.3
2014-Sep-13 20:34N 26°06' W 080°04'0 0.2
2014-Sep-13 19:33N 26°06' W 080°05'1 0.6
2014-Sep-13 18:34N 26°06' W 080°05'1 0.7
2014-Sep-13 17:33N 26°06' W 080°06'0 0.2
2014-Sep-13 16:34N 26°06' W 080°06'2 1.6
2014-Sep-13 15:34N 26°04' W 080°07'1 1.5
2014-Sep-13 14:33N 26°06' W 080°07'1 0.9
2014-Sep-13 13:34N 26°06' W 080°07'0 0.0
2014-Sep-13 12:34N 26°06' W 080°07'1 0.7
2014-Sep-13 11:33N 26°06' W 080°07'1 0.5
2014-Sep-13 10:11N 26°06' W 080°07'3 4.2
2014-Sep-13 09:34N 26°06' W 080°05'1 1.2
2014-Sep-13 08:34N 26°06' W 080°06'1 1.1
2014-Sep-13 07:33N 26°05' W 080°07'0 0.3
2014-Sep-13 06:33N 26°05' W 080°07'0 0.3
2014-Sep-13 05:33N 26°05' W 080°07'1 1.1
2014-Sep-13 04:33N 26°06' W 080°07'0 0.0
2014-Sep-13 03:34N 26°06' W 080°07'0 0.0
2014-Sep-13 02:33N 26°06' W 080°07'0 0.0
2014-Sep-13 01:33N 26°06' W 080°07'1 1.5
2014-Sep-13 00:34N 26°06' W 080°06'1 1.0
2014-Sep-12 23:33N 26°05' W 080°07'0 0.1
2014-Sep-12 22:33N 26°05' W 080°07'0 0.2
2014-Sep-12 21:33N 26°05' W 080°07'2 2.0
2014-Sep-12 20:33N 26°05' W 080°05'1 0.8
2014-Sep-12 19:33N 26°06' W 080°06'1 1.2
2014-Sep-12 18:33N 26°05' W 080°07'1 0.8
2014-Sep-12 17:33N 26°06' W 080°07'0 0.0
2014-Sep-12 16:33N 26°06' W 080°07'0 0.3
2014-Sep-12 15:33N 26°06' W 080°07'5 5.2
2014-Sep-12 14:33N 26°07' W 080°02'4 4.0
2014-Sep-12 13:33N 26°06' W 080°05'2 1.5
2014-Sep-12 12:33N 26°06' W 080°07'0 0.2
2014-Sep-12 11:25N 26°06' W 080°07'3 3.0
2014-Sep-12 10:33N 26°06' W 080°05'2 2.4
2014-Sep-12 09:33N 26°06' W 080°07'0 0.2
2014-Sep-12 08:33N 26°06' W 080°07'2 1.8
2014-Sep-12 07:33N 26°06' W 080°05'2 2.0
2014-Sep-12 06:33N 26°06' W 080°07'0 0.0
2014-Sep-12 00:09N 26°06' W 080°07'1 1.5
2014-Sep-11 23:33N 26°06' W 080°07'1 0.3
2014-Sep-11 21:34N 26°06' W 080°07'1 0.6
2014-Sep-11 20:33N 26°05' W 080°07'0 0.2
2014-Sep-11 19:33N 26°06' W 080°07'1 0.6
2014-Sep-11 18:33N 26°06' W 080°07'3 2.9
2014-Sep-11 17:33N 26°06' W 080°04'3 2.9
2014-Sep-11 16:33N 26°06' W 080°07'0 0.0
2014-Sep-11 15:33N 26°06' W 080°07'1 1.1
2014-Sep-11 14:33N 26°05' W 080°07'1 0.2
2014-Sep-11 11:33N 26°06' W 080°06'3 2.9
2014-Sep-11 10:33N 26°06' W 080°03'3 3.5
2014-Sep-11 09:33N 26°05' W 080°07'1 0.8
2014-Sep-11 08:34N 26°06' W 080°06'1 0.6
2014-Sep-11 06:33N 26°06' W 080°07'1 1.1
2014-Sep-11 05:33N 26°05' W 080°07'0 0.1
2014-Sep-11 04:34N 26°05' W 080°07'  

Dump ship's entire track history